sensor_id;sensor_type;location;lat;lon;timestamp;P1;durP1;ratioP1;P2;durP2;ratioP2
73508;SDS011;72120;54.964;73.444;2023-08-31T00:02:01;5.45;;;2.85;;
73508;SDS011;72120;54.964;73.444;2023-08-31T00:04:29;4.95;;;2.80;;
73508;SDS011;72120;54.964;73.444;2023-08-31T00:06:55;4.78;;;2.58;;
73508;SDS011;72120;54.964;73.444;2023-08-31T00:09:23;7.63;;;2.60;;
73508;SDS011;72120;54.964;73.444;2023-08-31T00:11:50;4.57;;;2.72;;
73508;SDS011;72120;54.964;73.444;2023-08-31T00:14:17;6.57;;;3.00;;
73508;SDS011;72120;54.964;73.444;2023-08-31T00:16:43;5.55;;;2.60;;
73508;SDS011;72120;54.964;73.444;2023-08-31T00:19:11;5.63;;;2.65;;
73508;SDS011;72120;54.964;73.444;2023-08-31T00:21:40;5.97;;;2.75;;
73508;SDS011;72120;54.964;73.444;2023-08-31T00:26:35;4.10;;;2.45;;
73508;SDS011;72120;54.964;73.444;2023-08-31T00:29:08;6.68;;;2.90;;
73508;SDS011;72120;54.964;73.444;2023-08-31T00:31:37;6.47;;;2.60;;
73508;SDS011;72120;54.964;73.444;2023-08-31T00:34:05;5.45;;;2.80;;
73508;SDS011;72120;54.964;73.444;2023-08-31T00:36:32;5.65;;;2.50;;
73508;SDS011;72120;54.964;73.444;2023-08-31T00:39:03;5.38;;;2.70;;
73508;SDS011;72120;54.964;73.444;2023-08-31T00:41:40;5.78;;;2.60;;
73508;SDS011;72120;54.964;73.444;2023-08-31T00:44:06;6.85;;;2.55;;
73508;SDS011;72120;54.964;73.444;2023-08-31T00:46:33;5.60;;;2.45;;
73508;SDS011;72120;54.964;73.444;2023-08-31T00:49:00;9.63;;;2.92;;
73508;SDS011;72120;54.964;73.444;2023-08-31T00:51:29;6.25;;;2.22;;
73508;SDS011;72120;54.964;73.444;2023-08-31T00:53:56;5.20;;;2.28;;
73508;SDS011;72120;54.964;73.444;2023-08-31T00:56:26;6.60;;;2.78;;
73508;SDS011;72120;54.964;73.444;2023-08-31T00:58:53;4.80;;;2.42;;
73508;SDS011;72120;54.964;73.444;2023-08-31T01:12:05;5.43;;;2.85;;
73508;SDS011;72120;54.964;73.444;2023-08-31T01:15:17;6.30;;;2.70;;
73508;SDS011;72120;54.964;73.444;2023-08-31T01:17:40;6.25;;;3.17;;
73508;SDS011;72120;54.964;73.444;2023-08-31T01:20:11;3.90;;;2.58;;
73508;SDS011;72120;54.964;73.444;2023-08-31T01:22:55;9.00;;;2.63;;
73508;SDS011;72120;54.964;73.444;2023-08-31T01:25:26;5.50;;;2.80;;
73508;SDS011;72120;54.964;73.444;2023-08-31T01:27:56;5.97;;;2.35;;
73508;SDS011;72120;54.964;73.444;2023-08-31T01:32:52;8.57;;;2.78;;
73508;SDS011;72120;54.964;73.444;2023-08-31T01:35:20;6.18;;;3.13;;
73508;SDS011;72120;54.964;73.444;2023-08-31T01:43:18;5.05;;;2.70;;
73508;SDS011;72120;54.964;73.444;2023-08-31T01:45:45;5.78;;;2.65;;
73508;SDS011;72120;54.964;73.444;2023-08-31T01:48:13;6.95;;;3.05;;
73508;SDS011;72120;54.964;73.444;2023-08-31T01:50:40;5.47;;;3.15;;
73508;SDS011;72120;54.964;73.444;2023-08-31T01:53:07;6.00;;;3.22;;
73508;SDS011;72120;54.964;73.444;2023-08-31T01:55:33;5.70;;;2.88;;
73508;SDS011;72120;54.964;73.444;2023-08-31T01:57:59;5.88;;;2.95;;
73508;SDS011;72120;54.964;73.444;2023-08-31T02:00:27;5.07;;;2.78;;
73508;SDS011;72120;54.964;73.444;2023-08-31T02:02:55;5.13;;;2.63;;
73508;SDS011;72120;54.964;73.444;2023-08-31T02:05:21;4.90;;;2.25;;
73508;SDS011;72120;54.964;73.444;2023-08-31T02:07:49;4.47;;;2.55;;
73508;SDS011;72120;54.964;73.444;2023-08-31T02:10:17;5.20;;;2.88;;
73508;SDS011;72120;54.964;73.444;2023-08-31T02:13:04;7.30;;;3.00;;
73508;SDS011;72120;54.964;73.444;2023-08-31T02:15:30;5.93;;;3.00;;
73508;SDS011;72120;54.964;73.444;2023-08-31T02:17:59;8.00;;;3.00;;
73508;SDS011;72120;54.964;73.444;2023-08-31T02:20:25;4.80;;;2.55;;
73508;SDS011;72120;54.964;73.444;2023-08-31T02:22:52;11.93;;;5.45;;
73508;SDS011;72120;54.964;73.444;2023-08-31T02:25:18;5.20;;;2.60;;
73508;SDS011;72120;54.964;73.444;2023-08-31T02:27:45;5.80;;;2.40;;
73508;SDS011;72120;54.964;73.444;2023-08-31T02:30:12;5.60;;;2.03;;
73508;SDS011;72120;54.964;73.444;2023-08-31T02:32:38;6.55;;;1.98;;
73508;SDS011;72120;54.964;73.444;2023-08-31T02:35:04;3.55;;;2.20;;
73508;SDS011;72120;54.964;73.444;2023-08-31T02:37:30;3.20;;;2.00;;
73508;SDS011;72120;54.964;73.444;2023-08-31T02:39:56;4.43;;;1.80;;
73508;SDS011;72120;54.964;73.444;2023-08-31T02:42:25;5.90;;;2.22;;
73508;SDS011;72120;54.964;73.444;2023-08-31T02:44:52;4.35;;;2.30;;
73508;SDS011;72120;54.964;73.444;2023-08-31T02:47:21;5.30;;;2.20;;
73508;SDS011;72120;54.964;73.444;2023-08-31T02:49:48;2.97;;;2.08;;
73508;SDS011;72120;54.964;73.444;2023-08-31T02:52:17;5.07;;;1.90;;
73508;SDS011;72120;54.964;73.444;2023-08-31T02:54:43;6.60;;;2.30;;
73508;SDS011;72120;54.964;73.444;2023-08-31T02:57:09;6.47;;;2.35;;
73508;SDS011;72120;54.964;73.444;2023-08-31T02:59:35;5.10;;;2.90;;
73508;SDS011;72120;54.964;73.444;2023-08-31T03:02:04;5.80;;;2.50;;
73508;SDS011;72120;54.964;73.444;2023-08-31T03:04:36;5.63;;;2.47;;
73508;SDS011;72120;54.964;73.444;2023-08-31T03:07:03;13.23;;;2.95;;
73508;SDS011;72120;54.964;73.444;2023-08-31T03:09:29;7.45;;;3.42;;
73508;SDS011;72120;54.964;73.444;2023-08-31T03:11:58;11.90;;;4.35;;
73508;SDS011;72120;54.964;73.444;2023-08-31T03:14:30;8.02;;;3.05;;
73508;SDS011;72120;54.964;73.444;2023-08-31T03:16:56;9.07;;;2.75;;
73508;SDS011;72120;54.964;73.444;2023-08-31T03:21:49;9.13;;;3.28;;
73508;SDS011;72120;54.964;73.444;2023-08-31T03:24:15;8.15;;;3.25;;
73508;SDS011;72120;54.964;73.444;2023-08-31T03:27:04;5.95;;;3.10;;
73508;SDS011;72120;54.964;73.444;2023-08-31T03:29:31;6.35;;;2.85;;
73508;SDS011;72120;54.964;73.444;2023-08-31T03:32:00;7.60;;;2.90;;
73508;SDS011;72120;54.964;73.444;2023-08-31T03:34:33;7.30;;;2.50;;
73508;SDS011;72120;54.964;73.444;2023-08-31T03:37:02;4.25;;;2.58;;
73508;SDS011;72120;54.964;73.444;2023-08-31T03:39:29;5.60;;;2.60;;
73508;SDS011;72120;54.964;73.444;2023-08-31T03:41:58;7.75;;;2.50;;
73508;SDS011;72120;54.964;73.444;2023-08-31T03:44:30;6.55;;;2.35;;
73508;SDS011;72120;54.964;73.444;2023-08-31T03:46:56;8.23;;;2.45;;
73508;SDS011;72120;54.964;73.444;2023-08-31T03:49:25;3.53;;;1.92;;
73508;SDS011;72120;54.964;73.444;2023-08-31T03:51:51;3.38;;;1.92;;
73508;SDS011;72120;54.964;73.444;2023-08-31T03:54:20;4.72;;;2.25;;
73508;SDS011;72120;54.964;73.444;2023-08-31T03:56:46;4.55;;;2.10;;
73508;SDS011;72120;54.964;73.444;2023-08-31T04:01:38;6.03;;;2.17;;
73508;SDS011;72120;54.964;73.444;2023-08-31T04:04:05;5.45;;;2.05;;
73508;SDS011;72120;54.964;73.444;2023-08-31T04:06:33;5.70;;;1.90;;
73508;SDS011;72120;54.964;73.444;2023-08-31T04:08:59;6.50;;;1.85;;
73508;SDS011;72120;54.964;73.444;2023-08-31T04:13:52;5.22;;;1.90;;
73508;SDS011;72120;54.964;73.444;2023-08-31T04:16:18;6.78;;;1.83;;
73508;SDS011;72120;54.964;73.444;2023-08-31T04:18:45;7.53;;;1.73;;
73508;SDS011;72120;54.964;73.444;2023-08-31T04:21:17;6.30;;;1.95;;
73508;SDS011;72120;54.964;73.444;2023-08-31T04:23:44;4.85;;;2.25;;
73508;SDS011;72120;54.964;73.444;2023-08-31T04:26:11;4.13;;;1.70;;
73508;SDS011;72120;54.964;73.444;2023-08-31T04:28:48;5.18;;;1.80;;
73508;SDS011;72120;54.964;73.444;2023-08-31T04:33:40;4.50;;;1.60;;
73508;SDS011;72120;54.964;73.444;2023-08-31T04:36:07;6.38;;;2.10;;
73508;SDS011;72120;54.964;73.444;2023-08-31T04:38:37;5.05;;;2.00;;
73508;SDS011;72120;54.964;73.444;2023-08-31T04:41:03;4.38;;;1.90;;
73508;SDS011;72120;54.964;73.444;2023-08-31T04:43:30;3.03;;;1.75;;
73508;SDS011;72120;54.964;73.444;2023-08-31T04:45:57;2.58;;;1.73;;
73508;SDS011;72120;54.964;73.444;2023-08-31T04:48:23;5.95;;;1.60;;
73508;SDS011;72120;54.964;73.444;2023-08-31T04:50:49;3.67;;;2.17;;
73508;SDS011;72120;54.964;73.444;2023-08-31T04:53:15;4.55;;;2.00;;
73508;SDS011;72120;54.964;73.444;2023-08-31T04:55:41;4.15;;;1.48;;
73508;SDS011;72120;54.964;73.444;2023-08-31T05:00:36;5.70;;;1.85;;
73508;SDS011;72120;54.964;73.444;2023-08-31T05:03:02;3.92;;;1.88;;
73508;SDS011;72120;54.964;73.444;2023-08-31T05:07:54;6.18;;;1.80;;
73508;SDS011;72120;54.964;73.444;2023-08-31T05:10:20;5.55;;;1.83;;
73508;SDS011;72120;54.964;73.444;2023-08-31T05:12:47;6.10;;;1.80;;
73508;SDS011;72120;54.964;73.444;2023-08-31T05:15:13;3.40;;;1.80;;
73508;SDS011;72120;54.964;73.444;2023-08-31T05:17:39;3.60;;;1.50;;
73508;SDS011;72120;54.964;73.444;2023-08-31T05:20:05;9.13;;;1.67;;
73508;SDS011;72120;54.964;73.444;2023-08-31T05:22:33;6.65;;;1.70;;
73508;SDS011;72120;54.964;73.444;2023-08-31T05:25:00;4.72;;;1.60;;
73508;SDS011;72120;54.964;73.444;2023-08-31T05:29:52;4.97;;;1.50;;
73508;SDS011;72120;54.964;73.444;2023-08-31T05:32:18;3.15;;;1.80;;
73508;SDS011;72120;54.964;73.444;2023-08-31T05:34:45;6.28;;;1.83;;
73508;SDS011;72120;54.964;73.444;2023-08-31T05:37:11;3.35;;;1.58;;
73508;SDS011;72120;54.964;73.444;2023-08-31T05:39:37;3.38;;;1.77;;
73508;SDS011;72120;54.964;73.444;2023-08-31T05:42:04;4.05;;;1.60;;
73508;SDS011;72120;54.964;73.444;2023-08-31T05:44:30;5.45;;;1.67;;
73508;SDS011;72120;54.964;73.444;2023-08-31T05:46:56;3.80;;;1.42;;
73508;SDS011;72120;54.964;73.444;2023-08-31T05:49:23;4.03;;;1.52;;
73508;SDS011;72120;54.964;73.444;2023-08-31T05:51:49;4.65;;;1.40;;
73508;SDS011;72120;54.964;73.444;2023-08-31T05:54:16;3.22;;;1.50;;
73508;SDS011;72120;54.964;73.444;2023-08-31T05:56:42;3.20;;;1.48;;
73508;SDS011;72120;54.964;73.444;2023-08-31T05:59:08;3.22;;;1.20;;
73508;SDS011;72120;54.964;73.444;2023-08-31T06:01:35;4.18;;;1.67;;
73508;SDS011;72120;54.964;73.444;2023-08-31T06:04:04;4.38;;;1.20;;
73508;SDS011;72120;54.964;73.444;2023-08-31T06:06:31;4.68;;;1.25;;
73508;SDS011;72120;54.964;73.444;2023-08-31T06:08:58;5.25;;;1.35;;
73508;SDS011;72120;54.964;73.444;2023-08-31T06:11:24;3.25;;;1.30;;
73508;SDS011;72120;54.964;73.444;2023-08-31T06:13:51;3.25;;;1.10;;
73508;SDS011;72120;54.964;73.444;2023-08-31T06:16:17;2.92;;;1.48;;
73508;SDS011;72120;54.964;73.444;2023-08-31T06:18:43;6.32;;;1.65;;
73508;SDS011;72120;54.964;73.444;2023-08-31T06:21:09;2.83;;;1.40;;
73508;SDS011;72120;54.964;73.444;2023-08-31T06:26:01;3.70;;;1.27;;
73508;SDS011;72120;54.964;73.444;2023-08-31T06:28:29;3.88;;;1.33;;
73508;SDS011;72120;54.964;73.444;2023-08-31T06:30:55;5.15;;;1.58;;
73508;SDS011;72120;54.964;73.444;2023-08-31T06:33:21;2.80;;;1.50;;
73508;SDS011;72120;54.964;73.444;2023-08-31T06:38:14;4.63;;;1.30;;
73508;SDS011;72120;54.964;73.444;2023-08-31T06:40:41;5.90;;;1.70;;
73508;SDS011;72120;54.964;73.444;2023-08-31T06:43:11;6.35;;;1.98;;
73508;SDS011;72120;54.964;73.444;2023-08-31T06:45:37;3.67;;;1.30;;
73508;SDS011;72120;54.964;73.444;2023-08-31T06:48:03;4.38;;;1.40;;
73508;SDS011;72120;54.964;73.444;2023-08-31T06:50:30;4.00;;;1.30;;
73508;SDS011;72120;54.964;73.444;2023-08-31T06:55:22;2.78;;;1.20;;
73508;SDS011;72120;54.964;73.444;2023-08-31T06:57:49;2.38;;;1.23;;
73508;SDS011;72120;54.964;73.444;2023-08-31T07:00:15;2.42;;;1.23;;
73508;SDS011;72120;54.964;73.444;2023-08-31T07:05:08;3.80;;;1.38;;
73508;SDS011;72120;54.964;73.444;2023-08-31T07:07:35;4.88;;;1.48;;
73508;SDS011;72120;54.964;73.444;2023-08-31T07:12:29;3.88;;;1.30;;
73508;SDS011;72120;54.964;73.444;2023-08-31T07:14:55;2.83;;;1.60;;
73508;SDS011;72120;54.964;73.444;2023-08-31T07:19:47;3.47;;;1.60;;
73508;SDS011;72120;54.964;73.444;2023-08-31T07:22:14;6.55;;;1.73;;
73508;SDS011;72120;54.964;73.444;2023-08-31T07:24:40;3.70;;;1.73;;
73508;SDS011;72120;54.964;73.444;2023-08-31T07:27:08;2.92;;;1.90;;
73508;SDS011;72120;54.964;73.444;2023-08-31T07:29:34;6.00;;;1.90;;
73508;SDS011;72120;54.964;73.444;2023-08-31T07:32:00;3.97;;;1.67;;
73508;SDS011;72120;54.964;73.444;2023-08-31T07:34:26;3.00;;;1.73;;
73508;SDS011;72120;54.964;73.444;2023-08-31T07:36:54;4.13;;;1.70;;
73508;SDS011;72120;54.964;73.444;2023-08-31T07:39:20;3.28;;;1.42;;
73508;SDS011;72120;54.964;73.444;2023-08-31T07:41:46;3.25;;;1.50;;
73508;SDS011;72120;54.964;73.444;2023-08-31T07:44:12;2.95;;;1.50;;
73508;SDS011;72120;54.964;73.444;2023-08-31T07:46:41;3.85;;;1.70;;
73508;SDS011;72120;54.964;73.444;2023-08-31T07:49:07;2.92;;;1.80;;
73508;SDS011;72120;54.964;73.444;2023-08-31T07:51:33;2.72;;;1.60;;
73508;SDS011;72120;54.964;73.444;2023-08-31T07:54:00;3.00;;;1.80;;
73508;SDS011;72120;54.964;73.444;2023-08-31T07:56:28;3.53;;;1.95;;
73508;SDS011;72120;54.964;73.444;2023-08-31T07:58:57;4.68;;;1.80;;
73508;SDS011;72120;54.964;73.444;2023-08-31T08:01:24;3.50;;;1.60;;
73508;SDS011;72120;54.964;73.444;2023-08-31T08:03:50;3.65;;;1.70;;
73508;SDS011;72120;54.964;73.444;2023-08-31T08:06:16;4.05;;;1.98;;
73508;SDS011;72120;54.964;73.444;2023-08-31T08:11:08;4.38;;;1.90;;
73508;SDS011;72120;54.964;73.444;2023-08-31T08:16:00;3.78;;;2.10;;
73508;SDS011;72120;54.964;73.444;2023-08-31T08:18:27;3.95;;;1.95;;
73508;SDS011;72120;54.964;73.444;2023-08-31T08:20:53;4.25;;;1.85;;
73508;SDS011;72120;54.964;73.444;2023-08-31T08:25:49;6.18;;;2.00;;
73508;SDS011;72120;54.964;73.444;2023-08-31T08:28:15;3.40;;;2.00;;
73508;SDS011;72120;54.964;73.444;2023-08-31T08:30:41;3.30;;;1.80;;
73508;SDS011;72120;54.964;73.444;2023-08-31T08:33:08;5.93;;;2.00;;
73508;SDS011;72120;54.964;73.444;2023-08-31T08:35:34;4.28;;;1.90;;
73508;SDS011;72120;54.964;73.444;2023-08-31T08:38:03;3.58;;;1.70;;
73508;SDS011;72120;54.964;73.444;2023-08-31T08:40:30;4.00;;;2.00;;
73508;SDS011;72120;54.964;73.444;2023-08-31T08:42:58;3.17;;;1.95;;
73508;SDS011;72120;54.964;73.444;2023-08-31T08:45:29;4.00;;;1.80;;
73508;SDS011;72120;54.964;73.444;2023-08-31T08:47:59;4.28;;;2.42;;
73508;SDS011;72120;54.964;73.444;2023-08-31T08:50:25;5.22;;;2.72;;
73508;SDS011;72120;54.964;73.444;2023-08-31T08:52:54;3.95;;;2.15;;
73508;SDS011;72120;54.964;73.444;2023-08-31T08:55:21;5.20;;;2.80;;
73508;SDS011;72120;54.964;73.444;2023-08-31T08:57:47;6.70;;;2.28;;
73508;SDS011;72120;54.964;73.444;2023-08-31T09:00:14;3.97;;;2.20;;
73508;SDS011;72120;54.964;73.444;2023-08-31T09:02:41;6.60;;;2.30;;
73508;SDS011;72120;54.964;73.444;2023-08-31T09:05:07;4.38;;;2.30;;
73508;SDS011;72120;54.964;73.444;2023-08-31T09:07:36;4.97;;;2.03;;
73508;SDS011;72120;54.964;73.444;2023-08-31T09:10:03;5.53;;;2.15;;
73508;SDS011;72120;54.964;73.444;2023-08-31T09:12:30;5.35;;;2.40;;
73508;SDS011;72120;54.964;73.444;2023-08-31T09:15:00;7.93;;;2.42;;
73508;SDS011;72120;54.964;73.444;2023-08-31T09:17:38;6.85;;;2.20;;
73508;SDS011;72120;54.964;73.444;2023-08-31T09:20:06;5.53;;;2.30;;
73508;SDS011;72120;54.964;73.444;2023-08-31T09:22:33;6.50;;;2.55;;
73508;SDS011;72120;54.964;73.444;2023-08-31T09:24:59;4.13;;;1.90;;
73508;SDS011;72120;54.964;73.444;2023-08-31T09:27:26;6.90;;;2.10;;
73508;SDS011;72120;54.964;73.444;2023-08-31T09:30:01;5.43;;;2.22;;
73508;SDS011;72120;54.964;73.444;2023-08-31T09:32:35;4.47;;;2.05;;
73508;SDS011;72120;54.964;73.444;2023-08-31T09:35:02;8.55;;;2.08;;
73508;SDS011;72120;54.964;73.444;2023-08-31T09:37:29;4.15;;;2.20;;
73508;SDS011;72120;54.964;73.444;2023-08-31T09:39:55;4.38;;;2.15;;
73508;SDS011;72120;54.964;73.444;2023-08-31T09:44:49;6.05;;;2.00;;
73508;SDS011;72120;54.964;73.444;2023-08-31T09:47:15;4.38;;;2.08;;
73508;SDS011;72120;54.964;73.444;2023-08-31T09:49:43;3.88;;;2.03;;
73508;SDS011;72120;54.964;73.444;2023-08-31T09:52:10;6.20;;;2.10;;
73508;SDS011;72120;54.964;73.444;2023-08-31T09:54:38;3.28;;;1.80;;
73508;SDS011;72120;54.964;73.444;2023-08-31T09:57:05;5.93;;;2.08;;
73508;SDS011;72120;54.964;73.444;2023-08-31T09:59:32;5.45;;;2.42;;
73508;SDS011;72120;54.964;73.444;2023-08-31T10:01:59;8.32;;;2.00;;
73508;SDS011;72120;54.964;73.444;2023-08-31T10:04:28;4.00;;;2.10;;
73508;SDS011;72120;54.964;73.444;2023-08-31T10:06:56;4.50;;;2.50;;
73508;SDS011;72120;54.964;73.444;2023-08-31T10:12:04;6.35;;;2.38;;
73508;SDS011;72120;54.964;73.444;2023-08-31T10:14:31;6.35;;;2.40;;
73508;SDS011;72120;54.964;73.444;2023-08-31T10:16:58;8.40;;;2.38;;
73508;SDS011;72120;54.964;73.444;2023-08-31T10:19:27;4.95;;;2.30;;
73508;SDS011;72120;54.964;73.444;2023-08-31T10:21:53;9.35;;;2.78;;
73508;SDS011;72120;54.964;73.444;2023-08-31T10:24:56;8.18;;;2.60;;
73508;SDS011;72120;54.964;73.444;2023-08-31T10:27:27;7.32;;;2.70;;
73508;SDS011;72120;54.964;73.444;2023-08-31T10:29:53;5.03;;;2.83;;
73508;SDS011;72120;54.964;73.444;2023-08-31T10:32:19;4.90;;;2.50;;
73508;SDS011;72120;54.964;73.444;2023-08-31T10:35:05;3.92;;;2.35;;
73508;SDS011;72120;54.964;73.444;2023-08-31T10:37:33;4.00;;;2.90;;
73508;SDS011;72120;54.964;73.444;2023-08-31T10:40:12;5.80;;;3.08;;
73508;SDS011;72120;54.964;73.444;2023-08-31T10:42:42;7.63;;;2.53;;
73508;SDS011;72120;54.964;73.444;2023-08-31T10:45:12;6.30;;;2.85;;
73508;SDS011;72120;54.964;73.444;2023-08-31T10:47:40;5.40;;;3.30;;
73508;SDS011;72120;54.964;73.444;2023-08-31T10:50:17;6.53;;;3.13;;
73508;SDS011;72120;54.964;73.444;2023-08-31T10:52:45;4.55;;;2.92;;
73508;SDS011;72120;54.964;73.444;2023-08-31T10:55:11;10.38;;;2.72;;
73508;SDS011;72120;54.964;73.444;2023-08-31T11:00:05;4.13;;;2.80;;
73508;SDS011;72120;54.964;73.444;2023-08-31T11:05:11;4.53;;;2.70;;
73508;SDS011;72120;54.964;73.444;2023-08-31T11:07:42;7.68;;;3.17;;
73508;SDS011;72120;54.964;73.444;2023-08-31T11:12:39;8.80;;;3.05;;
73508;SDS011;72120;54.964;73.444;2023-08-31T11:15:07;8.15;;;2.92;;
73508;SDS011;72120;54.964;73.444;2023-08-31T11:17:33;6.45;;;2.85;;
73508;SDS011;72120;54.964;73.444;2023-08-31T11:20:00;6.43;;;3.10;;
73508;SDS011;72120;54.964;73.444;2023-08-31T11:22:30;8.07;;;3.35;;
73508;SDS011;72120;54.964;73.444;2023-08-31T11:24:57;6.30;;;2.83;;
73508;SDS011;72120;54.964;73.444;2023-08-31T11:27:24;8.50;;;2.50;;
73508;SDS011;72120;54.964;73.444;2023-08-31T11:29:51;15.68;;;8.82;;
73508;SDS011;72120;54.964;73.444;2023-08-31T11:32:17;4.65;;;2.50;;
73508;SDS011;72120;54.964;73.444;2023-08-31T11:34:44;7.35;;;2.75;;
73508;SDS011;72120;54.964;73.444;2023-08-31T11:37:12;7.28;;;2.83;;
73508;SDS011;72120;54.964;73.444;2023-08-31T11:39:48;6.95;;;2.90;;
73508;SDS011;72120;54.964;73.444;2023-08-31T11:42:19;5.35;;;2.83;;
73508;SDS011;72120;54.964;73.444;2023-08-31T11:44:47;8.05;;;2.70;;
73508;SDS011;72120;54.964;73.444;2023-08-31T11:47:18;5.68;;;2.88;;
73508;SDS011;72120;54.964;73.444;2023-08-31T11:49:45;6.65;;;2.42;;
73508;SDS011;72120;54.964;73.444;2023-08-31T11:52:12;4.70;;;2.58;;
73508;SDS011;72120;54.964;73.444;2023-08-31T11:54:40;6.57;;;2.50;;
73508;SDS011;72120;54.964;73.444;2023-08-31T11:57:07;6.30;;;2.70;;
73508;SDS011;72120;54.964;73.444;2023-08-31T11:59:35;6.75;;;2.55;;
73508;SDS011;72120;54.964;73.444;2023-08-31T12:02:06;7.53;;;2.75;;
73508;SDS011;72120;54.964;73.444;2023-08-31T12:04:42;9.00;;;2.58;;
73508;SDS011;72120;54.964;73.444;2023-08-31T12:07:09;4.75;;;2.70;;
73508;SDS011;72120;54.964;73.444;2023-08-31T12:09:40;5.40;;;2.60;;
73508;SDS011;72120;54.964;73.444;2023-08-31T12:12:07;5.85;;;2.70;;
73508;SDS011;72120;54.964;73.444;2023-08-31T12:14:37;7.78;;;2.80;;
73508;SDS011;72120;54.964;73.444;2023-08-31T12:17:07;6.88;;;2.50;;
73508;SDS011;72120;54.964;73.444;2023-08-31T12:19:37;7.07;;;2.45;;
73508;SDS011;72120;54.964;73.444;2023-08-31T12:22:07;6.50;;;3.13;;
73508;SDS011;72120;54.964;73.444;2023-08-31T12:24:39;8.40;;;2.50;;
73508;SDS011;72120;54.964;73.444;2023-08-31T12:27:09;5.72;;;2.38;;
73508;SDS011;72120;54.964;73.444;2023-08-31T12:29:37;6.00;;;2.88;;
73508;SDS011;72120;54.964;73.444;2023-08-31T12:32:03;4.93;;;2.22;;
73508;SDS011;72120;54.964;73.444;2023-08-31T12:34:30;4.38;;;2.50;;
73508;SDS011;72120;54.964;73.444;2023-08-31T12:36:56;3.83;;;2.40;;
73508;SDS011;72120;54.964;73.444;2023-08-31T12:39:28;6.20;;;2.78;;
73508;SDS011;72120;54.964;73.444;2023-08-31T12:41:54;7.07;;;2.58;;
73508;SDS011;72120;54.964;73.444;2023-08-31T12:44:21;5.28;;;2.38;;
73508;SDS011;72120;54.964;73.444;2023-08-31T12:46:47;6.13;;;2.67;;
73508;SDS011;72120;54.964;73.444;2023-08-31T12:49:13;11.57;;;2.70;;
73508;SDS011;72120;54.964;73.444;2023-08-31T12:51:42;7.22;;;2.60;;
73508;SDS011;72120;54.964;73.444;2023-08-31T12:54:08;10.15;;;3.10;;
73508;SDS011;72120;54.964;73.444;2023-08-31T12:56:34;4.63;;;2.47;;
73508;SDS011;72120;54.964;73.444;2023-08-31T12:59:01;6.78;;;2.58;;
73508;SDS011;72120;54.964;73.444;2023-08-31T13:01:27;5.97;;;2.55;;
73508;SDS011;72120;54.964;73.444;2023-08-31T13:03:55;4.25;;;2.47;;
73508;SDS011;72120;54.964;73.444;2023-08-31T13:06:21;5.63;;;2.58;;
73508;SDS011;72120;54.964;73.444;2023-08-31T13:08:49;4.93;;;2.78;;
73508;SDS011;72120;54.964;73.444;2023-08-31T13:11:16;5.18;;;2.72;;
73508;SDS011;72120;54.964;73.444;2023-08-31T13:13:49;7.63;;;3.00;;
73508;SDS011;72120;54.964;73.444;2023-08-31T13:16:17;11.35;;;3.65;;
73508;SDS011;72120;54.964;73.444;2023-08-31T13:18:43;8.27;;;4.15;;
73508;SDS011;72120;54.964;73.444;2023-08-31T13:21:09;12.82;;;4.18;;
73508;SDS011;72120;54.964;73.444;2023-08-31T13:23:37;10.00;;;4.30;;
73508;SDS011;72120;54.964;73.444;2023-08-31T13:26:06;6.82;;;3.50;;
73508;SDS011;72120;54.964;73.444;2023-08-31T13:28:32;7.18;;;3.45;;
73508;SDS011;72120;54.964;73.444;2023-08-31T13:30:58;8.65;;;3.45;;
73508;SDS011;72120;54.964;73.444;2023-08-31T13:33:26;6.63;;;3.00;;
73508;SDS011;72120;54.964;73.444;2023-08-31T13:35:59;6.18;;;2.78;;
73508;SDS011;72120;54.964;73.444;2023-08-31T13:38:26;5.82;;;1.95;;
73508;SDS011;72120;54.964;73.444;2023-08-31T13:40:55;3.65;;;1.83;;
73508;SDS011;72120;54.964;73.444;2023-08-31T13:43:22;7.90;;;2.00;;
73508;SDS011;72120;54.964;73.444;2023-08-31T13:45:49;7.30;;;2.75;;
73508;SDS011;72120;54.964;73.444;2023-08-31T13:50:42;4.18;;;2.05;;
73508;SDS011;72120;54.964;73.444;2023-08-31T13:53:08;4.57;;;2.30;;
73508;SDS011;72120;54.964;73.444;2023-08-31T13:55:35;6.72;;;2.90;;
73508;SDS011;72120;54.964;73.444;2023-08-31T13:58:05;6.95;;;2.67;;
73508;SDS011;72120;54.964;73.444;2023-08-31T14:00:35;6.43;;;2.20;;
73508;SDS011;72120;54.964;73.444;2023-08-31T14:03:03;5.22;;;2.53;;
73508;SDS011;72120;54.964;73.444;2023-08-31T14:05:30;4.82;;;2.47;;
73508;SDS011;72120;54.964;73.444;2023-08-31T14:07:57;9.77;;;2.83;;
73508;SDS011;72120;54.964;73.444;2023-08-31T14:10:26;8.95;;;2.95;;
73508;SDS011;72120;54.964;73.444;2023-08-31T14:12:53;13.88;;;2.60;;
73508;SDS011;72120;54.964;73.444;2023-08-31T14:15:19;8.68;;;2.92;;
73508;SDS011;72120;54.964;73.444;2023-08-31T14:17:45;5.65;;;2.50;;
73508;SDS011;72120;54.964;73.444;2023-08-31T14:20:12;9.02;;;2.50;;
73508;SDS011;72120;54.964;73.444;2023-08-31T14:22:38;9.65;;;2.30;;
73508;SDS011;72120;54.964;73.444;2023-08-31T14:25:12;7.32;;;3.28;;
73508;SDS011;72120;54.964;73.444;2023-08-31T14:27:38;9.68;;;3.97;;
73508;SDS011;72120;54.964;73.444;2023-08-31T14:32:32;16.27;;;8.47;;
73508;SDS011;72120;54.964;73.444;2023-08-31T14:34:58;10.27;;;4.65;;
73508;SDS011;72120;54.964;73.444;2023-08-31T14:37:25;13.15;;;4.30;;
73508;SDS011;72120;54.964;73.444;2023-08-31T14:39:52;12.35;;;4.43;;
73508;SDS011;72120;54.964;73.444;2023-08-31T14:42:18;11.38;;;4.53;;
73508;SDS011;72120;54.964;73.444;2023-08-31T14:44:46;10.80;;;4.88;;
73508;SDS011;72120;54.964;73.444;2023-08-31T14:47:14;18.25;;;5.47;;
73508;SDS011;72120;54.964;73.444;2023-08-31T14:49:41;12.88;;;4.82;;
73508;SDS011;72120;54.964;73.444;2023-08-31T14:54:33;11.57;;;5.40;;
73508;SDS011;72120;54.964;73.444;2023-08-31T14:59:26;15.77;;;5.20;;
73508;SDS011;72120;54.964;73.444;2023-08-31T15:01:56;12.45;;;4.93;;
73508;SDS011;72120;54.964;73.444;2023-08-31T15:04:22;11.13;;;5.15;;
73508;SDS011;72120;54.964;73.444;2023-08-31T15:06:52;15.13;;;5.72;;
73508;SDS011;72120;54.964;73.444;2023-08-31T15:09:29;12.32;;;4.30;;
73508;SDS011;72120;54.964;73.444;2023-08-31T15:11:58;8.45;;;3.53;;
73508;SDS011;72120;54.964;73.444;2023-08-31T15:14:24;9.82;;;2.95;;
73508;SDS011;72120;54.964;73.444;2023-08-31T15:16:51;5.25;;;2.40;;
73508;SDS011;72120;54.964;73.444;2023-08-31T15:21:43;4.90;;;2.75;;
73508;SDS011;72120;54.964;73.444;2023-08-31T15:24:09;6.28;;;2.25;;
73508;SDS011;72120;54.964;73.444;2023-08-31T15:26:37;5.30;;;2.17;;
73508;SDS011;72120;54.964;73.444;2023-08-31T15:29:03;5.88;;;2.33;;
73508;SDS011;72120;54.964;73.444;2023-08-31T15:31:29;4.55;;;2.22;;
73508;SDS011;72120;54.964;73.444;2023-08-31T15:33:55;5.95;;;2.42;;
73508;SDS011;72120;54.964;73.444;2023-08-31T15:36:24;6.93;;;2.42;;
73508;SDS011;72120;54.964;73.444;2023-08-31T15:38:50;7.65;;;2.95;;
73508;SDS011;72120;54.964;73.444;2023-08-31T15:41:16;7.10;;;2.83;;
73508;SDS011;72120;54.964;73.444;2023-08-31T15:43:42;5.40;;;2.45;;
73508;SDS011;72120;54.964;73.444;2023-08-31T15:46:09;9.25;;;3.70;;
73508;SDS011;72120;54.964;73.444;2023-08-31T15:48:41;5.70;;;2.80;;
73508;SDS011;72120;54.964;73.444;2023-08-31T15:51:08;7.40;;;2.75;;
73508;SDS011;72120;54.964;73.444;2023-08-31T15:53:39;6.88;;;2.60;;
73508;SDS011;72120;54.964;73.444;2023-08-31T15:56:05;6.32;;;2.72;;
73508;SDS011;72120;54.964;73.444;2023-08-31T16:01:01;6.28;;;2.70;;
73508;SDS011;72120;54.964;73.444;2023-08-31T16:03:28;5.45;;;3.00;;
73508;SDS011;72120;54.964;73.444;2023-08-31T16:05:59;5.65;;;2.63;;